Terminal Aerodrome Forecast
Issued by NWS

Current Version | Previous Version | Text Only | Print | Product List | Glossary On
Versions: 1 2 3 4 5 6 7 8 9 10 11 12 13 14 15 16 17 18 19 20 21 22 23 24 25 26 27 28 29
000
FTUS43 KDMX 282331
TAFMCW
TAF
KMCW 282331Z 2900/2924 13007KT 5SM BR VCSH OVC009
     FM290300 16007KT 2SM BR VCSH OVC005
     FM290900 18010KT 3/4SM BR OVC004
     FM291500 20011KT 2SM BR BKN006
     FM291630 21008KT P6SM VCSH SCT020 BKN150=

USA.gov is the U.S. government's official web portal to all federal, state and local government web resources and services.